sensor_id;sensor_type;location;lat;lon;timestamp;P1;durP1;ratioP1;P2;durP2;ratioP2
33459;SDS011;19795;53.160;6.612;2023-07-09T05:15:11;915.10;;;837.83;;
33459;SDS011;19795;53.160;6.612;2023-07-09T05:17:37;981.92;;;889.00;;
33459;SDS011;19795;53.160;6.612;2023-07-09T05:22:38;930.53;;;849.30;;
33459;SDS011;19795;53.160;6.612;2023-07-09T05:25:04;960.72;;;875.38;;
33459;SDS011;19795;53.160;6.612;2023-07-09T05:27:30;970.20;;;883.15;;
33459;SDS011;19795;53.160;6.612;2023-07-09T05:29:55;944.88;;;863.08;;
33459;SDS011;19795;53.160;6.612;2023-07-09T05:32:21;955.47;;;871.40;;
33459;SDS011;19795;53.160;6.612;2023-07-09T05:34:47;1001.85;;;908.10;;
33459;SDS011;19795;53.160;6.612;2023-07-09T05:37:12;970.83;;;882.47;;
33459;SDS011;19795;53.160;6.612;2023-07-09T05:39:38;946.03;;;862.63;;
33459;SDS011;19795;53.160;6.612;2023-07-09T05:42:04;1143.03;;;947.63;;
33459;SDS011;19795;53.160;6.612;2023-07-09T05:44:30;980.95;;;890.10;;
33459;SDS011;19795;53.160;6.612;2023-07-09T05:46:55;864.65;;;794.72;;
33459;SDS011;19795;53.160;6.612;2023-07-09T05:49:21;875.55;;;804.35;;
33459;SDS011;19795;53.160;6.612;2023-07-09T05:51:47;822.90;;;759.70;;
33459;SDS011;19795;53.160;6.612;2023-07-09T05:54:13;870.38;;;800.75;;
33459;SDS011;19795;53.160;6.612;2023-07-09T05:56:38;861.17;;;793.60;;
33459;SDS011;19795;53.160;6.612;2023-07-09T05:59:04;667.22;;;624.92;;
33459;SDS011;19795;53.160;6.612;2023-07-09T06:01:30;654.53;;;614.67;;
33459;SDS011;19795;53.160;6.612;2023-07-09T06:03:55;574.88;;;541.03;;
33459;SDS011;19795;53.160;6.612;2023-07-09T06:06:21;570.10;;;537.28;;
33459;SDS011;19795;53.160;6.612;2023-07-09T06:08:47;489.55;;;461.65;;
33459;SDS011;19795;53.160;6.612;2023-07-09T06:11:13;470.75;;;443.38;;
33459;SDS011;19795;53.160;6.612;2023-07-09T06:13:39;507.00;;;477.45;;
33459;SDS011;19795;53.160;6.612;2023-07-09T06:16:04;524.20;;;493.02;;
33459;SDS011;19795;53.160;6.612;2023-07-09T06:18:30;495.85;;;467.23;;
33459;SDS011;19795;53.160;6.612;2023-07-09T06:20:57;524.78;;;493.67;;
33459;SDS011;19795;53.160;6.612;2023-07-09T06:23:23;513.15;;;482.98;;
33459;SDS011;19795;53.160;6.612;2023-07-09T06:25:49;455.55;;;428.58;;
33459;SDS011;19795;53.160;6.612;2023-07-09T06:28:17;504.55;;;474.27;;
33459;SDS011;19795;53.160;6.612;2023-07-09T06:30:47;596.97;;;561.60;;
33459;SDS011;19795;53.160;6.612;2023-07-09T06:33:13;460.08;;;434.98;;
33459;SDS011;19795;53.160;6.612;2023-07-09T06:35:46;412.08;;;388.25;;
33459;SDS011;19795;53.160;6.612;2023-07-09T06:38:16;408.05;;;386.17;;
33459;SDS011;19795;53.160;6.612;2023-07-09T06:40:43;409.88;;;387.65;;
33459;SDS011;19795;53.160;6.612;2023-07-09T06:43:09;297.17;;;281.67;;
33459;SDS011;19795;53.160;6.612;2023-07-09T06:45:35;376.92;;;356.83;;
33459;SDS011;19795;53.160;6.612;2023-07-09T06:48:01;392.65;;;371.00;;
33459;SDS011;19795;53.160;6.612;2023-07-09T06:50:27;322.15;;;304.88;;
33459;SDS011;19795;53.160;6.612;2023-07-09T06:52:53;450.23;;;425.75;;
33459;SDS011;19795;53.160;6.612;2023-07-09T06:55:19;512.97;;;483.52;;
33459;SDS011;19795;53.160;6.612;2023-07-09T06:57:45;571.78;;;537.53;;
33459;SDS011;19795;53.160;6.612;2023-07-09T07:00:11;519.85;;;489.55;;
33459;SDS011;19795;53.160;6.612;2023-07-09T07:02:37;517.40;;;487.83;;
33459;SDS011;19795;53.160;6.612;2023-07-09T07:05:02;460.60;;;434.65;;
33459;SDS011;19795;53.160;6.612;2023-07-09T07:07:28;235.07;;;222.68;;
33459;SDS011;19795;53.160;6.612;2023-07-09T07:09:54;343.77;;;325.33;;
33459;SDS011;19795;53.160;6.612;2023-07-09T07:12:29;303.33;;;286.40;;
33459;SDS011;19795;53.160;6.612;2023-07-09T07:15:07;410.17;;;387.95;;
33459;SDS011;19795;53.160;6.612;2023-07-09T07:17:33;324.05;;;307.20;;
33459;SDS011;19795;53.160;6.612;2023-07-09T07:19:59;320.70;;;303.70;;
33459;SDS011;19795;53.160;6.612;2023-07-09T07:22:25;331.80;;;314.35;;
33459;SDS011;19795;53.160;6.612;2023-07-09T07:24:51;530.03;;;499.63;;
33459;SDS011;19795;53.160;6.612;2023-07-09T07:27:17;327.92;;;311.00;;
33459;SDS011;19795;53.160;6.612;2023-07-09T07:29:42;463.00;;;436.67;;
33459;SDS011;19795;53.160;6.612;2023-07-09T07:32:09;257.10;;;243.00;;
33459;SDS011;19795;53.160;6.612;2023-07-09T07:34:35;342.20;;;324.20;;
33459;SDS011;19795;53.160;6.612;2023-07-09T07:37:01;301.08;;;286.00;;
33459;SDS011;19795;53.160;6.612;2023-07-09T07:39:26;205.10;;;194.25;;
33459;SDS011;19795;53.160;6.612;2023-07-09T07:41:52;148.65;;;140.38;;
33459;SDS011;19795;53.160;6.612;2023-07-09T07:44:18;137.20;;;129.68;;
33459;SDS011;19795;53.160;6.612;2023-07-09T07:46:43;211.27;;;199.93;;
33459;SDS011;19795;53.160;6.612;2023-07-09T07:49:10;178.52;;;168.52;;
33459;SDS011;19795;53.160;6.612;2023-07-09T07:51:35;169.73;;;160.68;;
33459;SDS011;19795;53.160;6.612;2023-07-09T07:54:02;101.22;;;95.55;;
33459;SDS011;19795;53.160;6.612;2023-07-09T07:56:27;99.55;;;93.75;;
33459;SDS011;19795;53.160;6.612;2023-07-09T07:58:53;245.02;;;232.60;;
33459;SDS011;19795;53.160;6.612;2023-07-09T08:01:19;335.48;;;317.90;;
33459;SDS011;19795;53.160;6.612;2023-07-09T08:03:44;238.32;;;225.98;;
33459;SDS011;19795;53.160;6.612;2023-07-09T08:06:10;298.92;;;283.58;;
33459;SDS011;19795;53.160;6.612;2023-07-09T08:08:36;367.15;;;347.27;;
33459;SDS011;19795;53.160;6.612;2023-07-09T08:11:03;296.70;;;282.08;;
33459;SDS011;19795;53.160;6.612;2023-07-09T08:13:33;276.38;;;261.30;;
33459;SDS011;19795;53.160;6.612;2023-07-09T08:15:59;403.80;;;381.13;;
33459;SDS011;19795;53.160;6.612;2023-07-09T08:18:25;234.68;;;222.45;;
33459;SDS011;19795;53.160;6.612;2023-07-09T08:20:51;251.73;;;238.38;;
33459;SDS011;19795;53.160;6.612;2023-07-09T08:23:16;332.65;;;314.90;;
33459;SDS011;19795;53.160;6.612;2023-07-09T08:25:42;320.92;;;304.73;;
33459;SDS011;19795;53.160;6.612;2023-07-09T08:28:08;320.13;;;303.00;;
33459;SDS011;19795;53.160;6.612;2023-07-09T08:30:34;345.00;;;327.08;;
33459;SDS011;19795;53.160;6.612;2023-07-09T08:33:01;256.33;;;243.35;;
33459;SDS011;19795;53.160;6.612;2023-07-09T08:35:26;113.03;;;106.53;;
33459;SDS011;19795;53.160;6.612;2023-07-09T08:37:52;126.47;;;119.45;;
33459;SDS011;19795;53.160;6.612;2023-07-09T08:40:17;381.17;;;360.30;;
33459;SDS011;19795;53.160;6.612;2023-07-09T08:42:44;127.55;;;120.35;;
33459;SDS011;19795;53.160;6.612;2023-07-09T08:45:15;118.22;;;111.60;;
33459;SDS011;19795;53.160;6.612;2023-07-09T08:50:45;161.93;;;153.10;;
33459;SDS011;19795;53.160;6.612;2023-07-09T08:53:19;365.77;;;346.33;;
33459;SDS011;19795;53.160;6.612;2023-07-09T08:56:01;215.05;;;203.68;;
33459;SDS011;19795;53.160;6.612;2023-07-09T08:58:29;276.90;;;262.15;;
33459;SDS011;19795;53.160;6.612;2023-07-09T09:00:57;361.08;;;341.45;;
33459;SDS011;19795;53.160;6.612;2023-07-09T09:06:00;195.13;;;184.48;;
33459;SDS011;19795;53.160;6.612;2023-07-09T09:11:17;80.80;;;76.20;;
33459;SDS011;19795;53.160;6.612;2023-07-09T09:13:52;68.78;;;64.53;;
33459;SDS011;19795;53.160;6.612;2023-07-09T09:16:22;190.90;;;180.60;;
33459;SDS011;19795;53.160;6.612;2023-07-09T09:18:55;253.43;;;239.57;;
33459;SDS011;19795;53.160;6.612;2023-07-09T09:21:29;273.67;;;259.10;;
33459;SDS011;19795;53.160;6.612;2023-07-09T09:24:08;144.90;;;136.98;;
33459;SDS011;19795;53.160;6.612;2023-07-09T09:26:40;370.83;;;350.63;;
33459;SDS011;19795;53.160;6.612;2023-07-09T09:29:12;336.27;;;318.40;;
33459;SDS011;19795;53.160;6.612;2023-07-09T09:31:39;244.45;;;230.98;;
33459;SDS011;19795;53.160;6.612;2023-07-09T09:34:06;196.65;;;185.77;;
33459;SDS011;19795;53.160;6.612;2023-07-09T09:36:43;216.73;;;204.68;;
33459;SDS011;19795;53.160;6.612;2023-07-09T09:39:09;104.55;;;98.28;;
33459;SDS011;19795;53.160;6.612;2023-07-09T09:41:35;128.95;;;121.93;;
33459;SDS011;19795;53.160;6.612;2023-07-09T09:44:02;80.75;;;75.80;;
33459;SDS011;19795;53.160;6.612;2023-07-09T09:46:30;81.50;;;76.63;;
33459;SDS011;19795;53.160;6.612;2023-07-09T09:49:00;336.80;;;319.00;;
33459;SDS011;19795;53.160;6.612;2023-07-09T09:51:28;192.20;;;181.55;;
33459;SDS011;19795;53.160;6.612;2023-07-09T09:53:57;284.40;;;268.55;;
33459;SDS011;19795;53.160;6.612;2023-07-09T09:56:29;61.60;;;57.25;;
33459;SDS011;19795;53.160;6.612;2023-07-09T09:58:58;213.90;;;202.23;;
33459;SDS011;19795;53.160;6.612;2023-07-09T10:01:26;289.92;;;272.73;;
33459;SDS011;19795;53.160;6.612;2023-07-09T10:03:58;82.33;;;77.40;;
33459;SDS011;19795;53.160;6.612;2023-07-09T10:06:29;165.48;;;156.52;;
33459;SDS011;19795;53.160;6.612;2023-07-09T10:12:13;173.95;;;164.27;;
33459;SDS011;19795;53.160;6.612;2023-07-09T10:14:50;169.75;;;160.45;;
33459;SDS011;19795;53.160;6.612;2023-07-09T10:17:36;296.90;;;281.00;;
33459;SDS011;19795;53.160;6.612;2023-07-09T10:20:09;83.90;;;79.00;;
33459;SDS011;19795;53.160;6.612;2023-07-09T10:23:03;341.67;;;322.40;;
33459;SDS011;19795;53.160;6.612;2023-07-09T10:25:48;296.85;;;279.17;;
33459;SDS011;19795;53.160;6.612;2023-07-09T10:31:24;129.75;;;122.45;;
33459;SDS011;19795;53.160;6.612;2023-07-09T10:39:20;133.95;;;126.63;;
33459;SDS011;19795;53.160;6.612;2023-07-09T10:41:51;200.85;;;189.82;;
33459;SDS011;19795;53.160;6.612;2023-07-09T10:44:24;127.28;;;120.30;;
33459;SDS011;19795;53.160;6.612;2023-07-09T10:47:03;370.17;;;350.02;;
33459;SDS011;19795;53.160;6.612;2023-07-09T10:49:35;107.55;;;101.40;;
33459;SDS011;19795;53.160;6.612;2023-07-09T10:54:56;302.35;;;286.35;;
33459;SDS011;19795;53.160;6.612;2023-07-09T11:00:20;208.27;;;197.07;;
33459;SDS011;19795;53.160;6.612;2023-07-09T11:02:50;100.35;;;94.32;;
33459;SDS011;19795;53.160;6.612;2023-07-09T11:05:24;258.70;;;244.38;;
33459;SDS011;19795;53.160;6.612;2023-07-09T11:10:44;306.38;;;290.17;;
33459;SDS011;19795;53.160;6.612;2023-07-09T11:13:18;113.38;;;106.78;;
33459;SDS011;19795;53.160;6.612;2023-07-09T11:15:49;348.77;;;329.60;;
33459;SDS011;19795;53.160;6.612;2023-07-09T11:18:20;331.27;;;313.83;;
33459;SDS011;19795;53.160;6.612;2023-07-09T11:21:15;138.25;;;130.48;;
33459;SDS011;19795;53.160;6.612;2023-07-09T11:26:29;207.52;;;195.50;;
33459;SDS011;19795;53.160;6.612;2023-07-09T11:31:39;108.32;;;101.60;;
33459;SDS011;19795;53.160;6.612;2023-07-09T11:36:32;124.03;;;117.10;;
33459;SDS011;19795;53.160;6.612;2023-07-09T11:38:59;175.95;;;165.65;;
33459;SDS011;19795;53.160;6.612;2023-07-09T11:41:37;131.43;;;123.93;;
33459;SDS011;19795;53.160;6.612;2023-07-09T11:52:25;131.52;;;124.22;;
33459;SDS011;19795;53.160;6.612;2023-07-09T11:57:48;162.48;;;153.60;;
33459;SDS011;19795;53.160;6.612;2023-07-09T12:00:22;142.90;;;135.00;;
33459;SDS011;19795;53.160;6.612;2023-07-09T12:02:48;141.70;;;133.88;;
33459;SDS011;19795;53.160;6.612;2023-07-09T12:05:17;132.95;;;125.57;;
33459;SDS011;19795;53.160;6.612;2023-07-09T12:07:45;211.45;;;199.88;;
33459;SDS011;19795;53.160;6.612;2023-07-09T12:10:18;285.02;;;270.50;;
33459;SDS011;19795;53.160;6.612;2023-07-09T12:12:47;111.00;;;104.03;;
33459;SDS011;19795;53.160;6.612;2023-07-09T12:15:35;142.07;;;134.57;;
33459;SDS011;19795;53.160;6.612;2023-07-09T12:18:00;180.60;;;170.82;;
33459;SDS011;19795;53.160;6.612;2023-07-09T12:20:29;251.02;;;237.93;;
33459;SDS011;19795;53.160;6.612;2023-07-09T12:22:56;261.75;;;248.23;;
33459;SDS011;19795;53.160;6.612;2023-07-09T12:25:23;115.82;;;108.32;;
33459;SDS011;19795;53.160;6.612;2023-07-09T12:27:51;185.23;;;174.85;;
33459;SDS011;19795;53.160;6.612;2023-07-09T12:30:18;134.65;;;127.45;;
33459;SDS011;19795;53.160;6.612;2023-07-09T12:32:48;294.35;;;277.73;;
33459;SDS011;19795;53.160;6.612;2023-07-09T12:35:17;150.90;;;142.88;;
33459;SDS011;19795;53.160;6.612;2023-07-09T12:37:46;211.77;;;200.40;;
33459;SDS011;19795;53.160;6.612;2023-07-09T12:42:46;165.00;;;155.88;;
33459;SDS011;19795;53.160;6.612;2023-07-09T12:45:18;299.02;;;284.00;;
33459;SDS011;19795;53.160;6.612;2023-07-09T12:47:46;289.50;;;274.17;;
33459;SDS011;19795;53.160;6.612;2023-07-09T12:50:18;470.33;;;442.77;;
33459;SDS011;19795;53.160;6.612;2023-07-09T12:52:51;291.80;;;276.85;;
33459;SDS011;19795;53.160;6.612;2023-07-09T12:55:22;205.55;;;194.32;;
33459;SDS011;19795;53.160;6.612;2023-07-09T12:57:50;340.98;;;322.67;;
33459;SDS011;19795;53.160;6.612;2023-07-09T13:00:17;542.58;;;508.60;;
33459;SDS011;19795;53.160;6.612;2023-07-09T13:02:43;288.45;;;272.95;;
33459;SDS011;19795;53.160;6.612;2023-07-09T13:05:21;206.68;;;195.77;;
33459;SDS011;19795;53.160;6.612;2023-07-09T13:07:52;181.40;;;171.45;;
33459;SDS011;19795;53.160;6.612;2023-07-09T13:10:23;119.88;;;113.30;;
33459;SDS011;19795;53.160;6.612;2023-07-09T13:12:52;121.32;;;114.95;;
33459;SDS011;19795;53.160;6.612;2023-07-09T13:15:23;81.88;;;76.82;;
33459;SDS011;19795;53.160;6.612;2023-07-09T13:17:56;104.40;;;98.25;;
33459;SDS011;19795;53.160;6.612;2023-07-09T13:20:23;58.73;;;54.97;;
33459;SDS011;19795;53.160;6.612;2023-07-09T13:22:49;136.30;;;128.82;;
33459;SDS011;19795;53.160;6.612;2023-07-09T13:25:15;207.63;;;196.55;;
33459;SDS011;19795;53.160;6.612;2023-07-09T13:27:41;248.27;;;235.15;;
33459;SDS011;19795;53.160;6.612;2023-07-09T13:30:08;125.30;;;118.15;;
33459;SDS011;19795;53.160;6.612;2023-07-09T13:32:34;40.47;;;37.47;;
33459;SDS011;19795;53.160;6.612;2023-07-09T13:35:00;263.50;;;249.60;;
33459;SDS011;19795;53.160;6.612;2023-07-09T13:37:25;239.38;;;226.55;;
33459;SDS011;19795;53.160;6.612;2023-07-09T13:39:51;347.52;;;325.33;;
33459;SDS011;19795;53.160;6.612;2023-07-09T13:42:17;262.83;;;249.45;;
33459;SDS011;19795;53.160;6.612;2023-07-09T13:44:44;268.10;;;254.60;;
33459;SDS011;19795;53.160;6.612;2023-07-09T13:47:14;376.58;;;352.63;;
33459;SDS011;19795;53.160;6.612;2023-07-09T13:49:42;308.42;;;291.63;;
33459;SDS011;19795;53.160;6.612;2023-07-09T13:52:13;216.73;;;205.60;;
33459;SDS011;19795;53.160;6.612;2023-07-09T13:54:44;265.77;;;252.10;;
33459;SDS011;19795;53.160;6.612;2023-07-09T13:57:13;165.15;;;156.57;;
33459;SDS011;19795;53.160;6.612;2023-07-09T13:59:44;289.33;;;273.88;;
33459;SDS011;19795;53.160;6.612;2023-07-09T14:02:24;227.63;;;215.30;;
33459;SDS011;19795;53.160;6.612;2023-07-09T14:04:56;263.30;;;249.80;;
33459;SDS011;19795;53.160;6.612;2023-07-09T14:07:32;353.02;;;331.58;;
33459;SDS011;19795;53.160;6.612;2023-07-09T14:10:00;297.08;;;281.77;;
33459;SDS011;19795;53.160;6.612;2023-07-09T14:12:27;265.38;;;250.80;;
33459;SDS011;19795;53.160;6.612;2023-07-09T14:14:55;755.85;;;676.70;;
33459;SDS011;19795;53.160;6.612;2023-07-09T14:17:23;181.20;;;170.82;;
33459;SDS011;19795;53.160;6.612;2023-07-09T14:19:50;61.33;;;57.35;;
33459;SDS011;19795;53.160;6.612;2023-07-09T14:22:21;135.45;;;128.00;;
33459;SDS011;19795;53.160;6.612;2023-07-09T14:24:52;127.40;;;120.55;;
33459;SDS011;19795;53.160;6.612;2023-07-09T14:27:18;150.85;;;142.93;;
33459;SDS011;19795;53.160;6.612;2023-07-09T14:29:44;90.28;;;85.20;;
33459;SDS011;19795;53.160;6.612;2023-07-09T14:35:02;145.20;;;133.88;;
33459;SDS011;19795;53.160;6.612;2023-07-09T14:37:39;46.72;;;43.28;;
33459;SDS011;19795;53.160;6.612;2023-07-09T14:40:07;92.00;;;86.10;;
33459;SDS011;19795;53.160;6.612;2023-07-09T14:42:34;57.60;;;53.35;;
33459;SDS011;19795;53.160;6.612;2023-07-09T14:45:01;135.75;;;126.32;;
33459;SDS011;19795;53.160;6.612;2023-07-09T14:47:28;181.38;;;168.55;;
33459;SDS011;19795;53.160;6.612;2023-07-09T14:49:54;137.98;;;128.60;;
33459;SDS011;19795;53.160;6.612;2023-07-09T14:52:20;273.50;;;255.40;;
33459;SDS011;19795;53.160;6.612;2023-07-09T14:54:49;246.73;;;231.75;;
33459;SDS011;19795;53.160;6.612;2023-07-09T14:57:24;307.63;;;284.60;;
33459;SDS011;19795;53.160;6.612;2023-07-09T14:59:51;300.98;;;280.98;;
33459;SDS011;19795;53.160;6.612;2023-07-09T15:04:50;635.92;;;582.78;;
33459;SDS011;19795;53.160;6.612;2023-07-09T15:07:16;452.40;;;426.27;;
33459;SDS011;19795;53.160;6.612;2023-07-09T15:09:41;507.40;;;471.80;;
33459;SDS011;19795;53.160;6.612;2023-07-09T15:12:13;438.10;;;408.90;;
33459;SDS011;19795;53.160;6.612;2023-07-09T15:14:42;830.10;;;754.95;;
33459;SDS011;19795;53.160;6.612;2023-07-09T15:17:10;475.95;;;447.77;;
33459;SDS011;19795;53.160;6.612;2023-07-09T15:19:37;886.25;;;751.83;;
33459;SDS011;19795;53.160;6.612;2023-07-09T15:22:02;698.78;;;622.25;;
33459;SDS011;19795;53.160;6.612;2023-07-09T15:26:57;906.28;;;690.58;;
33459;SDS011;19795;53.160;6.612;2023-07-09T15:29:25;744.25;;;676.20;;
33459;SDS011;19795;53.160;6.612;2023-07-09T15:31:51;724.58;;;652.45;;
33459;SDS011;19795;53.160;6.612;2023-07-09T15:34:16;817.17;;;755.90;;
33459;SDS011;19795;53.160;6.612;2023-07-09T15:36:43;774.75;;;702.80;;
33459;SDS011;19795;53.160;6.612;2023-07-09T15:39:16;908.90;;;835.35;;
33459;SDS011;19795;53.160;6.612;2023-07-09T15:41:43;944.55;;;861.92;;
33459;SDS011;19795;53.160;6.612;2023-07-09T15:44:09;947.10;;;867.53;;
33459;SDS011;19795;53.160;6.612;2023-07-09T15:46:39;857.92;;;791.15;;
33459;SDS011;19795;53.160;6.612;2023-07-09T15:49:06;621.03;;;566.90;;
33459;SDS011;19795;53.160;6.612;2023-07-09T15:51:32;718.95;;;651.03;;
33459;SDS011;19795;53.160;6.612;2023-07-09T15:53:57;768.58;;;700.80;;
33459;SDS011;19795;53.160;6.612;2023-07-09T15:56:24;468.70;;;392.02;;
33459;SDS011;19795;53.160;6.612;2023-07-09T15:58:55;1999.90;;;999.90;;
33459;SDS011;19795;53.160;6.612;2023-07-09T16:01:21;1999.90;;;999.90;;
33459;SDS011;19795;53.160;6.612;2023-07-09T16:03:49;1999.90;;;999.90;;
33459;SDS011;19795;53.160;6.612;2023-07-09T16:06:16;1999.90;;;999.90;;
33459;SDS011;19795;53.160;6.612;2023-07-09T16:08:43;1999.90;;;999.90;;
33459;SDS011;19795;53.160;6.612;2023-07-09T16:11:16;1999.90;;;999.90;;
33459;SDS011;19795;53.160;6.612;2023-07-09T16:13:43;1999.90;;;999.90;;
33459;SDS011;19795;53.160;6.612;2023-07-09T16:16:19;1999.90;;;999.90;;
33459;SDS011;19795;53.160;6.612;2023-07-09T16:18:52;1999.90;;;999.90;;
33459;SDS011;19795;53.160;6.612;2023-07-09T16:21:28;1999.90;;;999.90;;
33459;SDS011;19795;53.160;6.612;2023-07-09T16:23:56;1999.90;;;999.90;;
33459;SDS011;19795;53.160;6.612;2023-07-09T16:26:25;1999.90;;;999.90;;
33459;SDS011;19795;53.160;6.612;2023-07-09T16:28:54;1999.90;;;999.90;;
33459;SDS011;19795;53.160;6.612;2023-07-09T16:31:19;1999.90;;;999.90;;
33459;SDS011;19795;53.160;6.612;2023-07-09T16:33:45;1999.90;;;999.90;;
33459;SDS011;19795;53.160;6.612;2023-07-09T16:36:15;1999.90;;;999.90;;
33459;SDS011;19795;53.160;6.612;2023-07-09T16:38:42;1999.90;;;999.90;;
33459;SDS011;19795;53.160;6.612;2023-07-09T16:41:10;1999.90;;;999.90;;
33459;SDS011;19795;53.160;6.612;2023-07-09T16:43:39;1999.90;;;999.90;;
33459;SDS011;19795;53.160;6.612;2023-07-09T16:46:18;1999.90;;;999.90;;
33459;SDS011;19795;53.160;6.612;2023-07-09T16:48:47;1999.90;;;999.90;;
33459;SDS011;19795;53.160;6.612;2023-07-09T16:51:13;1999.90;;;999.90;;
33459;SDS011;19795;53.160;6.612;2023-07-09T16:53:39;1999.90;;;999.90;;
33459;SDS011;19795;53.160;6.612;2023-07-09T16:56:05;1999.90;;;999.90;;
33459;SDS011;19795;53.160;6.612;2023-07-09T16:58:32;1999.90;;;999.90;;
33459;SDS011;19795;53.160;6.612;2023-07-09T17:01:01;1999.90;;;999.90;;
33459;SDS011;19795;53.160;6.612;2023-07-09T17:03:28;1999.90;;;999.90;;
33459;SDS011;19795;53.160;6.612;2023-07-09T17:05:54;1999.90;;;999.90;;
33459;SDS011;19795;53.160;6.612;2023-07-09T17:08:20;1999.90;;;999.90;;
33459;SDS011;19795;53.160;6.612;2023-07-09T17:10:46;1999.90;;;999.90;;
33459;SDS011;19795;53.160;6.612;2023-07-09T17:13:17;1999.90;;;999.90;;
33459;SDS011;19795;53.160;6.612;2023-07-09T17:15:48;1999.90;;;999.90;;
33459;SDS011;19795;53.160;6.612;2023-07-09T17:18:22;1999.90;;;999.90;;
33459;SDS011;19795;53.160;6.612;2023-07-09T17:20:50;1999.90;;;999.90;;
33459;SDS011;19795;53.160;6.612;2023-07-09T17:23:18;1999.90;;;999.90;;
33459;SDS011;19795;53.160;6.612;2023-07-09T17:25:44;1999.90;;;999.90;;
33459;SDS011;19795;53.160;6.612;2023-07-09T17:28:14;1999.90;;;999.90;;
33459;SDS011;19795;53.160;6.612;2023-07-09T17:30:41;1999.90;;;999.90;;
33459;SDS011;19795;53.160;6.612;2023-07-09T17:33:06;1999.90;;;999.90;;
33459;SDS011;19795;53.160;6.612;2023-07-09T17:35:33;1999.90;;;999.90;;
33459;SDS011;19795;53.160;6.612;2023-07-09T17:38:00;1999.90;;;999.90;;
33459;SDS011;19795;53.160;6.612;2023-07-09T17:40:27;1999.90;;;999.90;;
33459;SDS011;19795;53.160;6.612;2023-07-09T17:42:55;1999.90;;;999.90;;
33459;SDS011;19795;53.160;6.612;2023-07-09T17:45:24;1999.90;;;999.90;;
33459;SDS011;19795;53.160;6.612;2023-07-09T17:47:51;1074.03;;;558.92;;
33459;SDS011;19795;53.160;6.612;2023-07-09T17:50:19;1999.90;;;999.90;;
33459;SDS011;19795;53.160;6.612;2023-07-09T17:52:47;1999.90;;;999.90;;
33459;SDS011;19795;53.160;6.612;2023-07-09T17:55:14;1999.90;;;999.90;;
33459;SDS011;19795;53.160;6.612;2023-07-09T17:57:41;1999.90;;;999.90;;
33459;SDS011;19795;53.160;6.612;2023-07-09T18:00:31;1999.90;;;999.90;;
33459;SDS011;19795;53.160;6.612;2023-07-09T18:03:00;1999.90;;;999.90;;
33459;SDS011;19795;53.160;6.612;2023-07-09T18:05:34;1999.90;;;999.90;;
33459;SDS011;19795;53.160;6.612;2023-07-09T18:08:01;1999.90;;;999.90;;
33459;SDS011;19795;53.160;6.612;2023-07-09T18:10:30;1999.90;;;999.90;;
33459;SDS011;19795;53.160;6.612;2023-07-09T18:13:00;1999.90;;;999.90;;
33459;SDS011;19795;53.160;6.612;2023-07-09T18:15:29;1999.90;;;999.90;;
33459;SDS011;19795;53.160;6.612;2023-07-09T18:17:58;1999.90;;;999.90;;
33459;SDS011;19795;53.160;6.612;2023-07-09T18:20:24;1999.90;;;999.90;;
33459;SDS011;19795;53.160;6.612;2023-07-09T18:22:50;1999.90;;;999.90;;
33459;SDS011;19795;53.160;6.612;2023-07-09T18:25:17;1999.90;;;999.90;;
33459;SDS011;19795;53.160;6.612;2023-07-09T18:27:46;1999.90;;;999.90;;
33459;SDS011;19795;53.160;6.612;2023-07-09T18:30:16;1999.90;;;999.90;;
33459;SDS011;19795;53.160;6.612;2023-07-09T18:32:45;1999.90;;;999.90;;
33459;SDS011;19795;53.160;6.612;2023-07-09T18:35:33;1999.90;;;999.90;;
33459;SDS011;19795;53.160;6.612;2023-07-09T18:38:05;1999.90;;;999.90;;
33459;SDS011;19795;53.160;6.612;2023-07-09T18:40:33;1999.90;;;999.90;;
33459;SDS011;19795;53.160;6.612;2023-07-09T18:43:11;1999.90;;;999.90;;
33459;SDS011;19795;53.160;6.612;2023-07-09T18:45:39;1999.90;;;999.90;;
33459;SDS011;19795;53.160;6.612;2023-07-09T18:50:45;1999.90;;;999.90;;
33459;SDS011;19795;53.160;6.612;2023-07-09T18:53:14;1999.90;;;999.90;;
33459;SDS011;19795;53.160;6.612;2023-07-09T18:55:40;1999.90;;;999.90;;
33459;SDS011;19795;53.160;6.612;2023-07-09T18:58:25;1999.90;;;999.90;;
33459;SDS011;19795;53.160;6.612;2023-07-09T19:00:53;1999.90;;;999.90;;
33459;SDS011;19795;53.160;6.612;2023-07-09T19:03:21;1999.90;;;999.90;;
33459;SDS011;19795;53.160;6.612;2023-07-09T19:05:51;1999.90;;;999.90;;
33459;SDS011;19795;53.160;6.612;2023-07-09T19:08:23;1999.90;;;999.90;;
33459;SDS011;19795;53.160;6.612;2023-07-09T19:10:53;1999.90;;;999.90;;
33459;SDS011;19795;53.160;6.612;2023-07-09T19:13:19;1999.90;;;999.90;;
33459;SDS011;19795;53.160;6.612;2023-07-09T19:15:46;1999.90;;;999.90;;
33459;SDS011;19795;53.160;6.612;2023-07-09T19:18:17;1999.90;;;999.90;;
33459;SDS011;19795;53.160;6.612;2023-07-09T19:20:48;1999.90;;;999.90;;
33459;SDS011;19795;53.160;6.612;2023-07-09T19:23:15;1999.90;;;999.90;;
33459;SDS011;19795;53.160;6.612;2023-07-09T19:25:43;1999.90;;;999.90;;
33459;SDS011;19795;53.160;6.612;2023-07-09T19:28:11;1999.90;;;999.90;;
33459;SDS011;19795;53.160;6.612;2023-07-09T19:30:38;1999.90;;;999.90;;
33459;SDS011;19795;53.160;6.612;2023-07-09T19:33:08;1999.90;;;999.90;;
33459;SDS011;19795;53.160;6.612;2023-07-09T19:35:48;1999.90;;;999.90;;
33459;SDS011;19795;53.160;6.612;2023-07-09T19:38:14;1999.90;;;999.90;;
33459;SDS011;19795;53.160;6.612;2023-07-09T19:40:40;1999.90;;;999.90;;
33459;SDS011;19795;53.160;6.612;2023-07-09T19:43:07;1999.90;;;999.90;;
33459;SDS011;19795;53.160;6.612;2023-07-09T19:45:36;1999.90;;;999.90;;
33459;SDS011;19795;53.160;6.612;2023-07-09T19:48:05;1999.90;;;999.90;;
33459;SDS011;19795;53.160;6.612;2023-07-09T19:50:37;1999.90;;;999.90;;
33459;SDS011;19795;53.160;6.612;2023-07-09T19:53:13;1999.90;;;999.90;;
33459;SDS011;19795;53.160;6.612;2023-07-09T19:55:42;1999.90;;;999.90;;
33459;SDS011;19795;53.160;6.612;2023-07-09T19:58:08;1999.90;;;999.90;;
33459;SDS011;19795;53.160;6.612;2023-07-09T20:00:34;1999.90;;;999.90;;
33459;SDS011;19795;53.160;6.612;2023-07-09T20:03:00;1999.90;;;999.90;;
33459;SDS011;19795;53.160;6.612;2023-07-09T20:05:27;1999.90;;;999.90;;
33459;SDS011;19795;53.160;6.612;2023-07-09T20:08:10;1999.90;;;999.90;;
33459;SDS011;19795;53.160;6.612;2023-07-09T20:10:40;1999.90;;;999.90;;
33459;SDS011;19795;53.160;6.612;2023-07-09T20:13:09;1999.90;;;999.90;;
33459;SDS011;19795;53.160;6.612;2023-07-09T20:15:37;1999.90;;;999.90;;
33459;SDS011;19795;53.160;6.612;2023-07-09T20:18:21;1999.90;;;999.90;;
33459;SDS011;19795;53.160;6.612;2023-07-09T20:20:50;1999.90;;;999.90;;